Time;durP1;ratioP1;P1;durP2;ratioP2;P2;SDS_P1;SDS_P2;PMS_P1;PMS_P2;Temp;Humidity;BMP_temperature;BMP_pressure;BME280_temperature;BME280_humidity;BME280_pressure;Samples;Min_cycle;Max_cycle;Signal;HPM_P1;HPM_P2
2022/09/03 00:01:49;;;;;;;;;;;18.30;84.70;;;;;;5064909;28;20015;-69
2022/09/03 00:04:25;;;;;;;;;;;18.20;84.80;;;;;;5073675;28;20327;-69
2022/09/03 00:07:01;;;;;;;;;;;18.10;85.30;;;;;;5073502;28;20320;-70
2022/09/03 00:09:30;;;;;;;;;;;18.00;84.90;;;;;;5072227;28;19920;-70
2022/09/03 00:12:07;;;;;;;;;;;18.10;85.00;;;;;;5053894;28;19920;-69
2022/09/03 00:14:34;;;;;;;;;;;18.00;85.20;;;;;;5052912;28;19925;-69
2022/09/03 00:17:04;;;;;;;;;;;18.00;85.00;;;;;;5036182;28;19929;-69
2022/09/03 00:19:40;;;;;;;;;;;18.00;85.20;;;;;;5035824;28;20377;-70
2022/09/03 00:22:11;;;;;;;;;;;18.00;85.10;;;;;;5052045;28;20342;-70
2022/09/03 00:24:38;;;;;;;;;;;18.00;85.30;;;;;;5053254;28;19920;-70
2022/09/03 00:27:06;;;;;;;;;;;17.90;85.30;;;;;;5070979;28;20311;-69
2022/09/03 00:29:47;;;;;;;;;;;17.90;85.20;;;;;;5072747;28;19925;-69
2022/09/03 00:32:19;;;;;;;;;;;17.90;85.30;;;;;;5071359;28;19920;-69
2022/09/03 00:34:48;;;;;;;;;;;17.90;85.20;;;;;;5055351;28;19974;-70
2022/09/03 00:37:13;;;;;;;;;;;17.90;85.40;;;;;;5072096;28;20391;-69
2022/09/03 00:39:40;;;;;;;;;;;17.80;85.70;;;;;;5073230;28;19920;-69
2022/09/03 00:42:24;;;;;;;;;;;17.80;85.90;;;;;;5055018;28;19920;-70
2022/09/03 00:45:25;;;;;;;;;;;17.70;85.90;;;;;;5072130;28;19921;-69
2022/09/03 00:48:09;;;;;;;;;;;17.70;86.10;;;;;;4982430;28;20366;-70
2022/09/03 00:50:54;;;;;;;;;;;17.60;86.30;;;;;;5028198;28;19955;-69
2022/09/03 00:53:32;;;;;;;;;;;17.60;86.60;;;;;;5035080;28;19920;-69
2022/09/03 00:56:10;;;;;;;;;;;17.60;86.60;;;;;;5052834;28;19921;-70
2022/09/03 00:58:44;;;;;;;;;;;17.60;86.80;;;;;;5034779;28;19936;-68
2022/09/03 01:01:22;;;;;;;;;;;17.50;86.80;;;;;;5034673;28;19924;-68
2022/09/03 01:03:52;;;;;;;;;;;17.50;86.60;;;;;;5035370;28;19931;-68
2022/09/03 01:06:20;;;;;;;;;;;17.50;86.70;;;;;;5052998;28;19924;-68
2022/09/03 01:09:02;;;;;;;;;;;17.40;86.70;;;;;;5052869;28;19921;-69
2022/09/03 01:11:27;;;;;;;;;;;17.40;86.90;;;;;;5052166;28;19920;-68
2022/09/03 01:14:01;;;;;;;;;;;17.40;86.70;;;;;;5034678;28;19959;-69
2022/09/03 01:16:34;;;;;;;;;;;17.30;86.80;;;;;;5034879;28;20011;-68
2022/09/03 01:19:38;;;;;;;;;;;17.30;86.90;;;;;;5051652;28;20398;-69
2022/09/03 01:22:18;;;;;;;;;;;17.30;87.00;;;;;;4975055;28;19947;-68
2022/09/03 01:24:44;;;;;;;;;;;17.20;87.30;;;;;;4991294;28;19928;-69
2022/09/03 01:27:16;;;;;;;;;;;17.30;87.10;;;;;;5036213;28;20354;-69
2022/09/03 01:29:45;;;;;;;;;;;17.30;87.50;;;;;;5055133;28;19974;-69
2022/09/03 01:32:16;;;;;;;;;;;17.20;87.10;;;;;;5052886;28;20015;-69
2022/09/03 01:34:54;;;;;;;;;;;17.20;87.50;;;;;;5052555;28;19920;-69
2022/09/03 01:37:38;;;;;;;;;;;17.20;87.40;;;;;;5069545;28;19920;-70
2022/09/03 01:40:04;;;;;;;;;;;17.20;87.70;;;;;;5053700;28;19921;-69
2022/09/03 01:42:37;;;;;;;;;;;17.10;87.90;;;;;;5054936;28;20292;-70
2022/09/03 01:45:06;;;;;;;;;;;17.10;87.80;;;;;;5072323;28;19925;-70
2022/09/03 01:47:32;;;;;;;;;;;17.10;87.80;;;;;;5047658;28;19996;-70
2022/09/03 01:50:10;;;;;;;;;;;17.10;88.00;;;;;;5034322;28;20010;-70
2022/09/03 01:52:49;;;;;;;;;;;17.10;87.80;;;;;;5052557;28;19990;-70
2022/09/03 01:55:22;;;;;;;;;;;17.00;88.00;;;;;;5051594;28;19924;-68
2022/09/03 01:57:55;;;;;;;;;;;17.00;88.00;;;;;;5052562;28;19920;-70
2022/09/03 02:00:20;;;;;;;;;;;17.00;87.80;;;;;;5033873;28;19920;-69
2022/09/03 02:02:47;;;;;;;;;;;16.90;87.70;;;;;;5053375;28;20016;-70
2022/09/03 02:05:15;;;;;;;;;;;16.90;87.70;;;;;;5034561;28;20372;-70
2022/09/03 02:07:43;;;;;;;;;;;16.90;88.00;;;;;;5033939;28;19921;-70
2022/09/03 02:10:11;;;;;;;;;;;16.90;88.10;;;;;;5037352;28;19921;-69
2022/09/03 02:12:37;;;;;;;;;;;16.90;87.70;;;;;;5056086;28;19921;-69
2022/09/03 02:15:10;;;;;;;;;;;16.90;88.00;;;;;;5036967;28;19938;-69
2022/09/03 02:17:36;;;;;;;;;;;16.90;87.90;;;;;;5044114;28;19920;-69
2022/09/03 02:20:07;;;;;;;;;;;16.90;88.00;;;;;;5058055;28;20003;-69
2022/09/03 02:22:33;;;;;;;;;;;16.90;87.90;;;;;;5057464;28;20403;-69
2022/09/03 02:24:58;;;;;;;;;;;16.90;88.00;;;;;;5057769;28;19920;-69
2022/09/03 02:27:24;;;;;;;;;;;16.90;88.00;;;;;;5075871;28;19987;-69
2022/09/03 02:29:50;;;;;;;;;;;16.80;88.30;;;;;;5074764;28;19935;-70
2022/09/03 02:32:15;;;;;;;;;;;16.80;88.10;;;;;;5074914;28;19924;-69
2022/09/03 02:34:42;;;;;;;;;;;16.80;88.50;;;;;;5056920;28;19960;-69
2022/09/03 02:37:12;;;;;;;;;;;16.80;88.40;;;;;;5074470;28;20011;-69
2022/09/03 02:39:38;;;;;;;;;;;16.80;88.40;;;;;;5057412;28;19920;-69
2022/09/03 02:42:03;;;;;;;;;;;16.80;88.70;;;;;;5057211;28;19927;-69
2022/09/03 02:44:34;;;;;;;;;;;16.70;88.70;;;;;;5057121;28;19921;-69
2022/09/03 02:47:04;;;;;;;;;;;16.70;88.70;;;;;;5057433;28;20023;-69
2022/09/03 02:49:29;;;;;;;;;;;16.70;88.90;;;;;;5055210;28;20419;-69
2022/09/03 02:52:08;;;;;;;;;;;16.80;89.00;;;;;;5074799;28;19926;-69
2022/09/03 02:54:38;;;;;;;;;;;16.60;89.30;;;;;;5075427;28;19921;-69
2022/09/03 02:57:14;;;;;;;;;;;16.60;89.30;;;;;;5074561;28;19927;-69
2022/09/03 02:59:42;;;;;;;;;;;16.60;89.30;;;;;;5057281;28;19966;-69
2022/09/03 03:02:08;;;;;;;;;;;16.60;89.40;;;;;;5057105;28;20279;-69
2022/09/03 03:04:34;;;;;;;;;;;16.50;89.40;;;;;;5054919;28;19976;-69
2022/09/03 03:06:59;;;;;;;;;;;16.50;89.50;;;;;;5054832;28;19966;-69
2022/09/03 03:09:25;;;;;;;;;;;16.40;89.60;;;;;;5036981;28;20012;-69
2022/09/03 03:11:53;;;;;;;;;;;16.60;89.80;;;;;;5036131;28;19920;-69
2022/09/03 03:14:19;;;;;;;;;;;16.40;89.90;;;;;;5037120;28;19970;-69
2022/09/03 03:16:44;;;;;;;;;;;16.40;89.90;;;;;;5054788;28;19925;-69
2022/09/03 03:19:10;;;;;;;;;;;16.40;90.00;;;;;;5054694;28;19925;-69
2022/09/03 03:21:35;;;;;;;;;;;16.40;90.00;;;;;;5053650;28;20342;-69
2022/09/03 03:24:01;;;;;;;;;;;16.40;89.80;;;;;;5054409;28;19921;-69
2022/09/03 03:26:27;;;;;;;;;;;16.40;89.80;;;;;;5036053;28;19920;-69
2022/09/03 03:28:56;;;;;;;;;;;16.40;90.00;;;;;;5054404;28;19931;-69
2022/09/03 03:31:22;;;;;;;;;;;16.30;89.80;;;;;;5036206;28;20002;-69
2022/09/03 03:33:52;;;;;;;;;;;16.30;90.00;;;;;;5066460;28;19967;-69
2022/09/03 03:36:18;;;;;;;;;;;16.30;90.00;;;;;;5074628;28;19920;-69
2022/09/03 03:38:43;;;;;;;;;;;16.30;90.10;;;;;;5073801;28;19952;-69
2022/09/03 03:41:10;;;;;;;;;;;16.30;90.00;;;;;;5056348;28;20415;-69
2022/09/03 03:43:36;;;;;;;;;;;16.30;89.90;;;;;;5056677;28;19927;-69
2022/09/03 03:46:01;;;;;;;;;;;16.30;90.20;;;;;;5055428;28;20354;-69
2022/09/03 03:48:27;;;;;;;;;;;16.30;90.20;;;;;;5072576;28;19928;-69
2022/09/03 03:50:52;;;;;;;;;;;16.30;90.20;;;;;;5074077;28;19924;-70
2022/09/03 03:53:18;;;;;;;;;;;16.40;90.10;;;;;;5055431;28;19920;-69
2022/09/03 03:55:53;;;;;;;;;;;16.30;90.20;;;;;;5074049;28;19920;-69
2022/09/03 03:58:18;;;;;;;;;;;16.30;90.20;;;;;;5056362;28;20411;-69
2022/09/03 04:00:44;;;;;;;;;;;16.20;90.30;;;;;;5072976;28;20518;-69
2022/09/03 04:03:10;;;;;;;;;;;16.20;90.30;;;;;;5048310;28;19974;-69
2022/09/03 04:05:35;;;;;;;;;;;16.20;90.30;;;;;;5053952;28;20019;-69
2022/09/03 04:08:01;;;;;;;;;;;16.20;90.30;;;;;;5052841;28;20295;-69
2022/09/03 04:10:27;;;;;;;;;;;16.20;90.40;;;;;;5039401;28;19928;-68
2022/09/03 04:12:53;;;;;;;;;;;16.20;90.30;;;;;;5062292;28;19924;-69
2022/09/03 04:15:18;;;;;;;;;;;16.20;90.40;;;;;;5041960;28;20354;-69
2022/09/03 04:17:44;;;;;;;;;;;16.20;90.50;;;;;;5046285;28;19920;-69
2022/09/03 04:20:09;;;;;;;;;;;16.20;90.40;;;;;;5044782;28;19971;-69
2022/09/03 04:22:35;;;;;;;;;;;16.20;90.50;;;;;;5061325;28;19963;-69
2022/09/03 04:25:00;;;;;;;;;;;16.20;90.40;;;;;;5045778;28;19920;-69
2022/09/03 04:27:26;;;;;;;;;;;16.10;90.40;;;;;;5061946;28;19924;-68
2022/09/03 04:29:51;;;;;;;;;;;16.20;90.40;;;;;;5061296;28;19979;-69
2022/09/03 04:35:01;;;;;;;;;;;16.20;90.40;;;;;;5034315;28;19921;-69
2022/09/03 04:37:26;;;;;;;;;;;16.10;90.40;;;;;;5035799;28;19928;-69
2022/09/03 04:39:53;;;;;;;;;;;16.10;90.50;;;;;;5035437;28;20364;-68
2022/09/03 04:42:18;;;;;;;;;;;16.20;90.50;;;;;;5034473;28;19921;-69
2022/09/03 04:44:44;;;;;;;;;;;16.10;90.70;;;;;;5035251;28;19921;-69
2022/09/03 04:47:09;;;;;;;;;;;16.10;90.70;;;;;;5035182;28;20235;-69
2022/09/03 04:49:35;;;;;;;;;;;16.10;90.60;;;;;;5035477;28;20003;-69
2022/09/03 04:52:01;;;;;;;;;;;16.10;90.60;;;;;;5052673;28;19917;-69
2022/09/03 04:54:26;;;;;;;;;;;16.10;90.70;;;;;;5052673;28;19920;-69
2022/09/03 04:56:52;;;;;;;;;;;16.00;90.60;;;;;;5034370;28;19979;-69
2022/09/03 04:59:17;;;;;;;;;;;16.00;90.80;;;;;;5053237;28;20399;-69
2022/09/03 05:01:43;;;;;;;;;;;15.90;90.80;;;;;;5035352;28;20296;-69
2022/09/03 05:04:08;;;;;;;;;;;16.00;90.80;;;;;;5048218;28;20508;-69
2022/09/03 05:06:37;;;;;;;;;;;16.00;90.80;;;;;;5072812;28;19923;-69
2022/09/03 05:09:03;;;;;;;;;;;16.00;90.90;;;;;;5047027;28;19925;-69
2022/09/03 05:11:29;;;;;;;;;;;16.00;90.80;;;;;;5052197;28;19920;-69
2022/09/03 05:13:55;;;;;;;;;;;16.00;91.00;;;;;;5052947;28;19928;-69
2022/09/03 05:16:22;;;;;;;;;;;15.90;91.00;;;;;;5052748;28;20352;-69
2022/09/03 05:18:50;;;;;;;;;;;15.90;91.10;;;;;;5053086;28;19921;-69
2022/09/03 05:21:17;;;;;;;;;;;15.90;91.20;;;;;;5033344;28;19963;-69
2022/09/03 05:23:44;;;;;;;;;;;15.90;91.00;;;;;;5032571;28;19921;-69
2022/09/03 05:26:12;;;;;;;;;;;15.90;91.00;;;;;;5031868;28;20203;-68
2022/09/03 05:28:39;;;;;;;;;;;15.90;91.30;;;;;;5032950;28;19998;-69
2022/09/03 05:31:06;;;;;;;;;;;16.00;91.10;;;;;;5044662;28;19927;-69
2022/09/03 05:33:35;;;;;;;;;;;16.00;91.10;;;;;;5060407;28;20524;-68
2022/09/03 05:36:01;;;;;;;;;;;16.00;91.00;;;;;;5032468;28;19970;-69
2022/09/03 05:38:27;;;;;;;;;;;16.00;91.20;;;;;;5051824;28;19920;-69
2022/09/03 05:40:52;;;;;;;;;;;16.00;91.20;;;;;;5050056;28;19929;-69
2022/09/03 05:43:18;;;;;;;;;;;16.00;91.20;;;;;;5043795;28;19967;-69
2022/09/03 05:45:44;;;;;;;;;;;16.00;91.30;;;;;;5068617;28;20003;-69
2022/09/03 05:48:10;;;;;;;;;;;16.00;91.20;;;;;;5050429;28;20369;-69
2022/09/03 05:50:36;;;;;;;;;;;16.10;91.30;;;;;;5047358;28;19924;-69
2022/09/03 05:53:01;;;;;;;;;;;16.10;91.40;;;;;;5053935;28;19921;-70
2022/09/03 05:55:27;;;;;;;;;;;16.10;91.40;;;;;;5042958;28;20297;-70
2022/09/03 05:57:53;;;;;;;;;;;16.20;91.20;;;;;;5090065;28;19993;-70
2022/09/03 06:00:19;;;;;;;;;;;16.20;91.20;;;;;;5049599;28;20368;-69
2022/09/03 06:02:51;;;;;;;;;;;16.30;91.20;;;;;;5047053;28;19928;-68
2022/09/03 06:05:17;;;;;;;;;;;16.30;91.30;;;;;;5049865;28;19920;-68
2022/09/03 06:07:43;;;;;;;;;;;16.30;91.60;;;;;;5059074;28;19924;-68
2022/09/03 06:10:11;;;;;;;;;;;16.30;91.20;;;;;;5046173;28;20351;-68
2022/09/03 06:12:37;;;;;;;;;;;16.40;91.40;;;;;;5068121;28;20006;-69
2022/09/03 06:15:04;;;;;;;;;;;16.40;91.30;;;;;;5058916;28;20353;-69
2022/09/03 06:17:30;;;;;;;;;;;16.40;91.20;;;;;;5057660;28;20365;-68
2022/09/03 06:19:56;;;;;;;;;;;16.40;91.20;;;;;;5067163;28;19916;-68
2022/09/03 06:22:23;;;;;;;;;;;16.40;91.20;;;;;;5046440;28;19920;-68
2022/09/03 06:24:49;;;;;;;;;;;16.40;91.30;;;;;;5044057;28;19928;-69
2022/09/03 06:27:14;;;;;;;;;;;16.30;91.60;;;;;;5055003;28;20284;-67
2022/09/03 06:29:40;;;;;;;;;;;16.50;91.40;;;;;;5037754;28;19928;-67
2022/09/03 06:32:05;;;;;;;;;;;16.30;91.70;;;;;;5055259;28;19921;-67
2022/09/03 06:34:31;;;;;;;;;;;16.30;91.50;;;;;;5053238;28;19920;-69
2022/09/03 06:36:58;;;;;;;;;;;16.30;91.60;;;;;;5057057;28;19920;-69
2022/09/03 06:39:24;;;;;;;;;;;16.30;91.40;;;;;;5050770;28;19924;-71
2022/09/03 06:41:50;;;;;;;;;;;16.50;91.60;;;;;;5053867;28;19966;-71
2022/09/03 06:44:16;;;;;;;;;;;16.30;91.60;;;;;;5054453;28;20011;-67
2022/09/03 06:46:42;;;;;;;;;;;16.30;91.60;;;;;;5052716;28;20000;-67
2022/09/03 06:49:08;;;;;;;;;;;16.40;91.70;;;;;;5040188;28;19963;-70
2022/09/03 06:51:35;;;;;;;;;;;16.40;91.50;;;;;;5037167;28;20287;-69
2022/09/03 06:54:02;;;;;;;;;;;16.40;91.70;;;;;;5036033;28;19921;-67
2022/09/03 06:56:27;;;;;;;;;;;16.40;91.60;;;;;;5034556;28;20295;-67
2022/09/03 06:58:54;;;;;;;;;;;16.50;91.60;;;;;;5032082;28;19924;-67
2022/09/03 07:01:21;;;;;;;;;;;16.50;91.80;;;;;;5036972;28;19927;-67
2022/09/03 07:03:47;;;;;;;;;;;16.60;91.90;;;;;;5045877;28;20364;-67
2022/09/03 07:06:14;;;;;;;;;;;16.70;91.70;;;;;;5055387;28;19968;-67
2022/09/03 07:08:41;;;;;;;;;;;16.80;91.50;;;;;;5056857;28;20273;-67
2022/09/03 07:11:09;;;;;;;;;;;16.80;91.30;;;;;;5055583;28;19920;-68
2022/09/03 07:13:39;;;;;;;;;;;16.90;91.40;;;;;;5057080;28;19920;-68
2022/09/03 07:16:06;;;;;;;;;;;17.00;91.40;;;;;;5064651;28;19979;-69
2022/09/03 07:18:32;;;;;;;;;;;17.10;90.90;;;;;;5092377;28;19981;-68
2022/09/03 07:20:58;;;;;;;;;;;17.70;90.70;;;;;;5094818;28;20003;-68
2022/09/03 07:23:24;;;;;;;;;;;18.90;89.10;;;;;;5094833;28;20363;-67
2022/09/03 07:25:57;;;;;;;;;;;20.10;84.70;;;;;;5075175;28;20101;-70
2022/09/03 07:28:23;;;;;;;;;;;21.10;83.30;;;;;;5076944;28;20349;-69
2022/09/03 07:30:49;;;;;;;;;;;21.90;79.80;;;;;;5076121;28;19920;-69
2022/09/03 07:33:15;;;;;;;;;;;22.30;79.20;;;;;;5074794;28;19977;-69
2022/09/03 07:35:40;;;;;;;;;;;23.30;78.50;;;;;;5094249;28;19924;-68
2022/09/03 07:38:06;;;;;;;;;;;24.10;77.80;;;;;;5055328;28;20272;-69
2022/09/03 07:40:32;;;;;;;;;;;24.20;74.50;;;;;;5074682;28;19966;-69
2022/09/03 07:43:03;;;;;;;;;;;24.90;74.20;;;;;;5073758;28;19921;-68
2022/09/03 07:45:29;;;;;;;;;;;25.40;74.10;;;;;;5073536;28;19921;-69
2022/09/03 07:47:55;;;;;;;;;;;25.20;72.00;;;;;;5055991;28;19990;-68
2022/09/03 07:50:20;;;;;;;;;;;25.30;72.50;;;;;;5092813;28;20007;-69
2022/09/03 07:52:47;;;;;;;;;;;25.50;72.40;;;;;;5075797;28;19927;-69
2022/09/03 07:55:13;;;;;;;;;;;25.80;71.70;;;;;;5076374;28;19927;-69
2022/09/03 07:57:38;;;;;;;;;;;25.70;71.00;;;;;;5083223;28;20291;-69
2022/09/03 08:00:07;;;;;;;;;;;25.80;71.20;;;;;;5072869;28;20372;-70
2022/09/03 08:02:33;;;;;;;;;;;25.90;71.70;;;;;;5055830;28;19920;-69
2022/09/03 08:04:59;;;;;;;;;;;26.00;71.50;;;;;;5055481;28;19928;-69
2022/09/03 08:07:24;;;;;;;;;;;26.30;70.60;;;;;;5072153;28;20026;-68
2022/09/03 08:09:50;;;;;;;;;;;26.80;71.30;;;;;;5073667;28;20283;-69
2022/09/03 08:12:15;;;;;;;;;;;27.30;70.40;;;;;;5093556;28;19924;-68
2022/09/03 08:14:41;;;;;;;;;;;27.70;69.30;;;;;;5074639;28;20011;-68
2022/09/03 08:17:07;;;;;;;;;;;27.60;69.70;;;;;;5075004;28;19920;-69
2022/09/03 08:19:33;;;;;;;;;;;27.40;69.10;;;;;;5093855;28;19924;-69
2022/09/03 08:21:59;;;;;;;;;;;27.40;69.00;;;;;;5092783;28;19919;-69
2022/09/03 08:24:25;;;;;;;;;;;27.20;69.20;;;;;;5093517;28;19927;-68
2022/09/03 08:26:50;;;;;;;;;;;26.80;69.20;;;;;;5090736;28;19920;-69
2022/09/03 08:29:16;;;;;;;;;;;27.00;69.60;;;;;;5093448;28;19934;-68
2022/09/03 08:31:43;;;;;;;;;;;27.00;69.40;;;;;;5082764;28;20253;-69
2022/09/03 08:34:10;;;;;;;;;;;27.20;68.80;;;;;;5072167;28;19950;-68
2022/09/03 08:36:36;;;;;;;;;;;27.20;70.20;;;;;;5055225;28;19920;-69
2022/09/03 08:39:03;;;;;;;;;;;27.00;69.30;;;;;;5072972;28;20015;-68
2022/09/03 08:41:37;;;;;;;;;;;27.50;71.30;;;;;;5073317;28;20383;-68
2022/09/03 08:44:22;;;;;;;;;;;27.80;69.10;;;;;;5072377;28;19960;-68
2022/09/03 08:46:50;;;;;;;;;;;27.60;69.50;;;;;;5073124;28;20330;-68
2022/09/03 08:49:20;;;;;;;;;;;27.60;68.40;;;;;;5072324;28;19928;-68
2022/09/03 08:51:48;;;;;;;;;;;27.50;69.10;;;;;;5055235;28;19963;-68
2022/09/03 08:54:14;;;;;;;;;;;27.60;70.10;;;;;;5071982;28;19924;-68
2022/09/03 08:56:41;;;;;;;;;;;28.00;70.00;;;;;;5083522;28;20002;-67
2022/09/03 08:59:07;;;;;;;;;;;28.90;69.00;;;;;;5092901;28;20431;-69
2022/09/03 09:01:42;;;;;;;;;;;29.40;67.40;;;;;;5092974;28;20283;-68
2022/09/03 09:04:26;;;;;;;;;;;29.20;66.70;;;;;;5091243;28;19920;-70
2022/09/03 09:06:59;;;;;;;;;;;29.00;67.80;;;;;;5092710;28;20034;-69
2022/09/03 09:09:48;;;;;;;;;;;29.30;67.10;;;;;;5092278;28;19920;-69
2022/09/03 09:12:32;;;;;;;;;;;29.50;66.90;;;;;;5072636;28;19927;-70
2022/09/03 09:15:07;;;;;;;;;;;29.60;67.20;;;;;;5092264;28;19943;-69
2022/09/03 09:17:51;;;;;;;;;;;29.70;67.00;;;;;;5091893;28;19924;-69
2022/09/03 09:20:26;;;;;;;;;;;29.40;67.30;;;;;;5078917;28;19920;-69
2022/09/03 09:22:55;;;;;;;;;;;29.50;67.50;;;;;;5078933;28;19995;-69
2022/09/03 09:25:21;;;;;;;;;;;29.40;66.60;;;;;;5078076;28;20027;-69
2022/09/03 09:27:50;;;;;;;;;;;29.60;68.70;;;;;;5056862;28;19927;-69
2022/09/03 09:30:16;;;;;;;;;;;30.20;67.40;;;;;;5069303;28;20346;-69
2022/09/03 09:32:42;;;;;;;;;;;30.90;65.20;;;;;;5059024;28;19927;-69
2022/09/03 09:35:09;;;;;;;;;;;30.50;65.50;;;;;;5076400;28;19928;-69
2022/09/03 09:37:45;;;;;;;;;;;30.60;68.50;;;;;;5057620;28;19927;-69
2022/09/03 09:40:21;;;;;;;;;;;30.70;66.50;;;;;;5058307;28;19920;-69
2022/09/03 09:42:46;;;;;;;;;;;30.80;66.60;;;;;;5077458;28;19921;-69
2022/09/03 09:45:12;;;;;;;;;;;31.00;65.90;;;;;;5075374;28;19920;-69
2022/09/03 09:47:38;;;;;;;;;;;31.10;66.70;;;;;;5058331;28;20296;-69
2022/09/03 09:50:15;;;;;;;;;;;31.70;65.80;;;;;;5076167;28;20007;-70
2022/09/03 09:52:42;;;;;;;;;;;31.60;65.00;;;;;;5057494;28;19920;-69
2022/09/03 09:55:16;;;;;;;;;;;31.60;66.50;;;;;;5076135;28;19966;-70
2022/09/03 09:57:42;;;;;;;;;;;31.40;66.30;;;;;;5075133;28;19920;-71
2022/09/03 10:00:11;;;;;;;;;;;31.70;66.80;;;;;;5077534;28;20014;-69
2022/09/03 10:02:36;;;;;;;;;;;32.20;64.20;;;;;;5078475;28;19919;-69
2022/09/03 10:05:21;;;;;;;;;;;32.50;64.50;;;;;;5096074;28;19927;-70
2022/09/03 10:08:04;;;;;;;;;;;32.90;65.40;;;;;;5078454;28;19920;-70
2022/09/03 10:10:32;;;;;;;;;;;32.40;66.00;;;;;;5077901;28;19974;-70
2022/09/03 10:13:01;;;;;;;;;;;32.40;64.60;;;;;;5093451;28;19927;-70
2022/09/03 10:15:29;;;;;;;;;;;32.10;65.60;;;;;;5096068;28;19955;-70
2022/09/03 10:18:03;;;;;;;;;;;32.30;66.40;;;;;;5095471;28;19927;-69
2022/09/03 10:20:48;;;;;;;;;;;32.40;66.00;;;;;;5094783;28;19997;-70
2022/09/03 10:23:17;;;;;;;;;;;32.50;64.60;;;;;;5077557;28;19923;-69
2022/09/03 10:26:05;;;;;;;;;;;32.70;64.50;;;;;;5094937;28;20006;-69
2022/09/03 10:28:33;;;;;;;;;;;32.70;66.90;;;;;;5057155;28;19920;-69
2022/09/03 10:31:10;;;;;;;;;;;33.00;65.10;;;;;;5074853;28;20003;-69
2022/09/03 10:33:40;;;;;;;;;;;32.80;64.60;;;;;;5074959;28;19920;-69
2022/09/03 10:36:18;;;;;;;;;;;32.00;64.00;;;;;;5057204;28;20489;-69
2022/09/03 10:38:47;;;;;;;;;;;32.00;64.50;;;;;;5075341;28;19932;-69
2022/09/03 10:41:13;;;;;;;;;;;31.60;64.70;;;;;;5075407;28;19925;-70
2022/09/03 10:43:50;;;;;;;;;;;31.70;65.80;;;;;;5054321;28;19921;-69
2022/09/03 10:46:19;;;;;;;;;;;32.50;67.00;;;;;;5055959;28;19947;-70
2022/09/03 10:48:48;;;;;;;;;;;32.50;64.80;;;;;;5053240;28;19927;-71
2022/09/03 10:51:14;;;;;;;;;;;32.70;65.60;;;;;;5054932;28;19928;-69
2022/09/03 10:53:52;;;;;;;;;;;32.80;64.80;;;;;;5053886;28;20280;-70
2022/09/03 10:56:30;;;;;;;;;;;32.60;62.70;;;;;;5064145;28;19927;-69
2022/09/03 10:58:55;;;;;;;;;;;32.40;63.80;;;;;;5074470;28;19920;-69
2022/09/03 11:01:34;;;;;;;;;;;31.70;64.70;;;;;;5074849;28;20015;-69
2022/09/03 11:04:14;;;;;;;;;;;31.50;64.50;;;;;;5056712;28;19920;-69
2022/09/03 11:06:49;;;;;;;;;;;31.70;64.10;;;;;;5056827;28;19920;-69
2022/09/03 11:09:15;;;;;;;;;;;31.80;66.00;;;;;;5056102;28;19916;-72
2022/09/03 11:11:43;;;;;;;;;;;32.00;64.70;;;;;;5062571;28;19920;-71
2022/09/03 11:14:09;;;;;;;;;;;32.10;64.80;;;;;;5076135;28;19920;-69
2022/09/03 11:16:47;;;;;;;;;;;31.70;65.20;;;;;;5091400;28;19927;-71
2022/09/03 11:19:15;;;;;;;;;;;31.70;64.60;;;;;;5054178;28;19921;-71
2022/09/03 11:21:42;;;;;;;;;;;31.80;65.70;;;;;;5054727;28;19924;-70
2022/09/03 11:24:13;;;;;;;;;;;32.10;62.80;;;;;;5073342;28;19920;-73
2022/09/03 11:26:42;;;;;;;;;;;31.90;63.10;;;;;;5052871;28;19923;-70
2022/09/03 11:29:07;;;;;;;;;;;31.50;64.00;;;;;;5076717;28;19927;-70
2022/09/03 11:31:33;;;;;;;;;;;30.70;64.60;;;;;;5076006;28;19919;-71
2022/09/03 11:34:07;;;;;;;;;;;30.60;64.00;;;;;;5076102;28;19946;-71
2022/09/03 11:36:34;;;;;;;;;;;30.70;66.00;;;;;;5076337;28;19920;-69
2022/09/03 11:38:59;;;;;;;;;;;31.20;65.70;;;;;;5093234;28;19920;-68
2022/09/03 11:41:36;;;;;;;;;;;31.30;64.60;;;;;;5073864;28;19926;-69
2022/09/03 11:44:18;;;;;;;;;;;31.70;63.70;;;;;;5075509;28;19920;-69
2022/09/03 11:47:06;;;;;;;;;;;31.80;63.40;;;;;;5094692;28;19924;-70
2022/09/03 11:49:32;;;;;;;;;;;32.00;64.30;;;;;;5075228;28;20023;-72
2022/09/03 11:52:03;;;;;;;;;;;32.10;62.40;;;;;;5074884;28;20011;-70
2022/09/03 11:54:32;;;;;;;;;;;31.60;61.20;;;;;;5075858;28;19973;-71
2022/09/03 11:57:22;;;;;;;;;;;31.30;61.90;;;;;;5062180;28;19928;-70
2022/09/03 11:59:47;;;;;;;;;;;31.00;61.90;;;;;;5067005;28;19927;-71
2022/09/03 12:02:25;;;;;;;;;;;31.10;63.60;;;;;;5064851;28;20283;-73
2022/09/03 12:05:01;;;;;;;;;;;31.40;63.90;;;;;;5075103;28;20356;-72
2022/09/03 12:07:33;;;;;;;;;;;31.50;62.40;;;;;;5094193;28;19966;-71
2022/09/03 12:09:58;;;;;;;;;;;31.70;61.10;;;;;;5075189;28;19927;-70
2022/09/03 12:12:36;;;;;;;;;;;31.20;61.80;;;;;;5073373;28;19924;-71
2022/09/03 12:15:14;;;;;;;;;;;31.30;62.80;;;;;;5075382;28;19920;-71
2022/09/03 12:18:17;;;;;;;;;;;31.20;61.80;;;;;;5075464;28;19927;-76
2022/09/03 12:20:36;;;;;;;;;;;31.20;61.90;;;;;;5074966;28;19927;-74
2022/09/03 12:23:02;;;;;;;;;;;31.30;61.80;;;;;;5075079;28;19920;-74
2022/09/03 12:25:27;;;;;;;;;;;31.50;61.40;;;;;;5093831;28;19973;-74
2022/09/03 12:27:53;;;;;;;;;;;31.70;61.80;;;;;;5072864;28;20003;-78
2022/09/03 12:30:22;;;;;;;;;;;31.50;60.70;;;;;;5073113;28;20015;-75
2022/09/03 12:32:50;;;;;;;;;;;31.20;60.20;;;;;;5074052;28;20426;-73
2022/09/03 12:35:17;;;;;;;;;;;30.70;61.60;;;;;;5092660;28;20038;-73
2022/09/03 12:37:44;;;;;;;;;;;30.50;61.00;;;;;;5074383;28;19970;-76
2022/09/03 12:40:26;;;;;;;;;;;30.70;63.50;;;;;;5073680;28;19927;-76
2022/09/03 12:42:52;;;;;;;;;;;31.00;62.50;;;;;;5073215;28;19920;-74
2022/09/03 12:45:27;;;;;;;;;;;31.10;59.80;;;;;;5092790;28;19923;-73
2022/09/03 12:47:52;;;;;;;;;;;31.10;60.80;;;;;;5092614;28;19924;-75
2022/09/03 12:50:20;;;;;;;;;;;31.10;61.30;;;;;;5093707;28;19999;-75
2022/09/03 12:52:58;;;;;;;;;;;31.10;61.60;;;;;;5073745;28;20007;-75
2022/09/03 12:55:26;;;;;;;;;;;30.90;61.40;;;;;;5073720;28;20367;-75
2022/09/03 12:57:54;;;;;;;;;;;30.70;61.80;;;;;;5072444;28;19921;-74
2022/09/03 13:00:20;;;;;;;;;;;29.90;61.30;;;;;;5053578;28;19924;-72
2022/09/03 13:02:54;;;;;;;;;;;29.50;60.80;;;;;;5052776;28;20399;-74
2022/09/03 13:05:22;;;;;;;;;;;29.40;62.50;;;;;;5051084;28;19964;-74
2022/09/03 13:07:51;;;;;;;;;;;29.20;62.70;;;;;;5052460;28;19971;-75
2022/09/03 13:10:28;;;;;;;;;;;29.20;63.10;;;;;;5051351;28;19920;-74
2022/09/03 13:13:01;;;;;;;;;;;29.00;61.70;;;;;;5053727;28;19925;-73
2022/09/03 13:15:27;;;;;;;;;;;29.00;62.80;;;;;;5071428;28;19921;-74
2022/09/03 13:18:11;;;;;;;;;;;29.10;61.80;;;;;;5054210;28;19921;-74
2022/09/03 13:20:40;;;;;;;;;;;29.00;62.00;;;;;;5072049;28;19993;-74
2022/09/03 13:23:17;;;;;;;;;;;28.90;62.20;;;;;;5071411;28;20367;-74
2022/09/03 13:25:52;;;;;;;;;;;28.80;62.40;;;;;;5072424;28;19982;-71
2022/09/03 13:28:18;;;;;;;;;;;28.80;61.40;;;;;;5054336;28;19924;-72
2022/09/03 13:31:02;;;;;;;;;;;28.80;62.20;;;;;;5053769;28;20303;-72
2022/09/03 13:33:33;;;;;;;;;;;28.80;60.60;;;;;;5053558;28;19921;-73
2022/09/03 13:36:07;;;;;;;;;;;28.60;61.70;;;;;;5054298;28;19982;-74
2022/09/03 13:38:38;;;;;;;;;;;28.70;62.10;;;;;;5053899;28;19920;-74
2022/09/03 13:41:18;;;;;;;;;;;28.70;61.80;;;;;;5072127;28;19939;-73
2022/09/03 13:43:49;;;;;;;;;;;28.70;62.40;;;;;;5053459;28;19947;-73
2022/09/03 13:46:20;;;;;;;;;;;28.70;62.10;;;;;;5072398;28;20348;-74
2022/09/03 13:51:38;;;;;;;;;;;28.60;61.90;;;;;;5070566;28;19942;-73
2022/09/03 13:54:25;;;;;;;;;;;28.60;62.00;;;;;;5091109;28;19963;-73
2022/09/03 13:56:59;;;;;;;;;;;28.60;62.00;;;;;;5092240;28;20009;-73
2022/09/03 13:59:31;;;;;;;;;;;28.60;61.30;;;;;;5089522;28;19924;-72
2022/09/03 14:01:59;;;;;;;;;;;28.50;62.40;;;;;;5092289;28;19973;-71
2022/09/03 14:04:32;;;;;;;;;;;28.40;62.10;;;;;;5074335;28;20419;-73
2022/09/03 14:07:05;;;;;;;;;;;28.40;63.00;;;;;;5078400;28;20026;-73
2022/09/03 14:09:33;;;;;;;;;;;28.50;63.00;;;;;;5096110;28;20003;-74
2022/09/03 14:12:13;;;;;;;;;;;28.50;61.10;;;;;;5076916;28;19926;-74
2022/09/03 14:14:41;;;;;;;;;;;28.40;61.30;;;;;;5068624;28;19921;-75
2022/09/03 14:17:11;;;;;;;;;;;28.30;61.10;;;;;;5055291;28;19920;-74
2022/09/03 14:19:45;;;;;;;;;;;28.50;62.40;;;;;;5037514;28;19921;-74
2022/09/03 14:22:23;;;;;;;;;;;28.50;63.10;;;;;;5055440;28;19974;-73
2022/09/03 14:24:58;;;;;;;;;;;28.30;61.60;;;;;;5037502;28;20361;-73
2022/09/03 14:27:31;;;;;;;;;;;28.40;62.50;;;;;;5053565;28;19990;-72
2022/09/03 14:30:00;;;;;;;;;;;28.40;61.90;;;;;;5037193;28;19928;-76
2022/09/03 14:32:28;;;;;;;;;;;28.50;61.70;;;;;;5037303;28;19924;-75
2022/09/03 14:34:58;;;;;;;;;;;28.50;63.40;;;;;;5054638;28;19924;-74
2022/09/03 14:37:24;;;;;;;;;;;28.60;62.50;;;;;;5054045;28;19925;-73